sensor_id;sensor_type;location;lat;lon;timestamp;temperature;humidity
46335;DHT22;32051;48.882;9.210;2022-08-04T11:03:23;38.00;56.60
46335;DHT22;32051;48.882;9.210;2022-08-04T11:05:56;38.30;55.50
46335;DHT22;32051;48.882;9.210;2022-08-04T11:08:28;38.80;55.20
46335;DHT22;32051;48.882;9.210;2022-08-04T11:11:08;39.10;53.60
46335;DHT22;32051;48.882;9.210;2022-08-04T11:13:45;39.40;53.70
46335;DHT22;32051;48.882;9.210;2022-08-04T11:16:16;39.70;52.60
46335;DHT22;32051;48.882;9.210;2022-08-04T11:18:48;39.90;53.00
46335;DHT22;32051;48.882;9.210;2022-08-04T11:21:20;40.30;52.10
46335;DHT22;32051;48.882;9.210;2022-08-04T11:24:07;40.60;52.00
46335;DHT22;32051;48.882;9.210;2022-08-04T11:26:47;40.90;52.30
46335;DHT22;32051;48.882;9.210;2022-08-04T11:32:19;41.40;51.90
46335;DHT22;32051;48.882;9.210;2022-08-04T11:34:48;41.80;51.40
46335;DHT22;32051;48.882;9.210;2022-08-04T11:37:20;42.30;50.80
46335;DHT22;32051;48.882;9.210;2022-08-04T11:39:51;42.80;50.30
46335;DHT22;32051;48.882;9.210;2022-08-04T11:42:28;43.30;51.10
46335;DHT22;32051;48.882;9.210;2022-08-04T11:45:06;43.70;49.20
46335;DHT22;32051;48.882;9.210;2022-08-04T11:50:11;43.90;48.40
46335;DHT22;32051;48.882;9.210;2022-08-04T11:52:39;43.50;48.30
46335;DHT22;32051;48.882;9.210;2022-08-04T11:55:12;42.60;48.60
46335;DHT22;32051;48.882;9.210;2022-08-04T11:57:38;42.70;48.60
46335;DHT22;32051;48.882;9.210;2022-08-04T12:00:10;42.80;49.20
46335;DHT22;32051;48.882;9.210;2022-08-04T12:05:19;43.30;48.60
46335;DHT22;32051;48.882;9.210;2022-08-04T12:08:10;43.60;47.40
46335;DHT22;32051;48.882;9.210;2022-08-04T12:10:55;44.10;48.80
46335;DHT22;32051;48.882;9.210;2022-08-04T12:19:16;44.90;47.50
46335;DHT22;32051;48.882;9.210;2022-08-04T12:21:47;44.70;46.30
46335;DHT22;32051;48.882;9.210;2022-08-04T12:24:19;44.30;47.50
46335;DHT22;32051;48.882;9.210;2022-08-04T12:26:54;44.40;47.00
46335;DHT22;32051;48.882;9.210;2022-08-04T12:29:26;44.80;47.40
46335;DHT22;32051;48.882;9.210;2022-08-04T12:32:01;44.90;46.90
46335;DHT22;32051;48.882;9.210;2022-08-04T12:34:38;44.80;47.30
46335;DHT22;32051;48.882;9.210;2022-08-04T12:37:43;44.60;46.70
46335;DHT22;32051;48.882;9.210;2022-08-04T12:40:19;45.10;46.30
46335;DHT22;32051;48.882;9.210;2022-08-04T12:43:10;45.60;45.80
46335;DHT22;32051;48.882;9.210;2022-08-04T12:45:43;46.00;46.20
46335;DHT22;32051;48.882;9.210;2022-08-04T12:48:11;46.30;45.90
46335;DHT22;32051;48.882;9.210;2022-08-04T12:50:37;46.10;45.90
46335;DHT22;32051;48.882;9.210;2022-08-04T12:53:11;46.00;45.40
46335;DHT22;32051;48.882;9.210;2022-08-04T12:55:44;46.10;45.40
46335;DHT22;32051;48.882;9.210;2022-08-04T12:58:17;46.10;45.10
46335;DHT22;32051;48.882;9.210;2022-08-04T13:00:53;46.10;45.20
46335;DHT22;32051;48.882;9.210;2022-08-04T13:03:22;46.00;45.70
46335;DHT22;32051;48.882;9.210;2022-08-04T13:05:52;46.20;45.60
46335;DHT22;32051;48.882;9.210;2022-08-04T13:08:19;46.20;45.20
46335;DHT22;32051;48.882;9.210;2022-08-04T13:10:47;46.20;45.10
46335;DHT22;32051;48.882;9.210;2022-08-04T13:13:23;46.30;44.90
46335;DHT22;32051;48.882;9.210;2022-08-04T13:15:58;46.40;44.90
46335;DHT22;32051;48.882;9.210;2022-08-04T13:18:26;46.70;44.70
46335;DHT22;32051;48.882;9.210;2022-08-04T13:20:52;47.10;44.50
46335;DHT22;32051;48.882;9.210;2022-08-04T13:23:19;47.00;43.80
46335;DHT22;32051;48.882;9.210;2022-08-04T13:25:50;46.50;44.20
46335;DHT22;32051;48.882;9.210;2022-08-04T13:28:23;46.20;44.50
46335;DHT22;32051;48.882;9.210;2022-08-04T13:30:55;46.30;45.10
46335;DHT22;32051;48.882;9.210;2022-08-04T13:33:30;46.60;44.40
46335;DHT22;32051;48.882;9.210;2022-08-04T13:35:57;46.00;44.80
46335;DHT22;32051;48.882;9.210;2022-08-04T13:38:27;46.10;44.50
46335;DHT22;32051;48.882;9.210;2022-08-04T13:40:59;45.10;44.20
46335;DHT22;32051;48.882;9.210;2022-08-04T13:43:32;44.80;45.50
46335;DHT22;32051;48.882;9.210;2022-08-04T13:46:01;44.30;46.20
46335;DHT22;32051;48.882;9.210;2022-08-04T13:51:05;44.80;44.60
46335;DHT22;32051;48.882;9.210;2022-08-04T13:53:33;44.80;44.90
46335;DHT22;32051;48.882;9.210;2022-08-04T13:56:00;44.90;44.60
46335;DHT22;32051;48.882;9.210;2022-08-04T13:58:30;45.00;44.50
46335;DHT22;32051;48.882;9.210;2022-08-04T14:01:18;45.00;44.90
46335;DHT22;32051;48.882;9.210;2022-08-04T14:06:28;45.40;44.60
46335;DHT22;32051;48.882;9.210;2022-08-04T14:09:02;45.50;43.70
46335;DHT22;32051;48.882;9.210;2022-08-04T14:11:38;45.50;44.00
46335;DHT22;32051;48.882;9.210;2022-08-04T14:14:24;45.70;43.80
46335;DHT22;32051;48.882;9.210;2022-08-04T14:19:22;46.00;43.70
46335;DHT22;32051;48.882;9.210;2022-08-04T14:26:52;46.40;43.80
46335;DHT22;32051;48.882;9.210;2022-08-04T14:29:18;46.10;43.40
46335;DHT22;32051;48.882;9.210;2022-08-04T14:31:48;46.90;43.70
46335;DHT22;32051;48.882;9.210;2022-08-04T14:34:27;46.90;43.50
46335;DHT22;32051;48.882;9.210;2022-08-04T14:36:54;47.00;42.90
46335;DHT22;32051;48.882;9.210;2022-08-04T14:39:38;47.10;43.30
46335;DHT22;32051;48.882;9.210;2022-08-04T14:42:05;47.40;42.90
46335;DHT22;32051;48.882;9.210;2022-08-04T14:44:31;47.50;42.40
46335;DHT22;32051;48.882;9.210;2022-08-04T14:46:57;47.40;42.80
46335;DHT22;32051;48.882;9.210;2022-08-04T14:49:24;47.30;43.00
46335;DHT22;32051;48.882;9.210;2022-08-04T14:54:33;46.80;42.50
46335;DHT22;32051;48.882;9.210;2022-08-04T14:57:04;46.40;42.70
46335;DHT22;32051;48.882;9.210;2022-08-04T14:59:44;45.80;43.10
46335;DHT22;32051;48.882;9.210;2022-08-04T15:02:13;45.10;44.10
46335;DHT22;32051;48.882;9.210;2022-08-04T15:04:39;44.40;44.00
46335;DHT22;32051;48.882;9.210;2022-08-04T15:09:33;43.70;44.80
